Time;durP1;ratioP1;P1;durP2;ratioP2;P2;SDS_P1;SDS_P2;PMS_P1;PMS_P2;Temp;Humidity;BMP_temperature;BMP_pressure;BME280_temperature;BME280_humidity;BME280_pressure;Samples;Min_cycle;Max_cycle;Signal;HPM_P1;HPM_P2
2022/10/06 00:01:57;;;;;;;19.67;15.57;;;;;;;;;;12970968;22;20382;-88
2022/10/06 00:06:58;;;;;;;20.30;15.63;;;;;;;;;;12971554;22;20365;-89
2022/10/06 00:12:00;;;;;;;20.50;16.23;;;;;;;;;;12971138;22;20362;-88
2022/10/06 00:17:04;;;;;;;23.33;16.45;;;;;;;;;;12971692;22;20358;-88
2022/10/06 00:22:05;;;;;;;20.70;15.90;;;;;;;;;;12971557;22;20390;-89
2022/10/06 00:27:07;;;;;;;20.73;16.10;;;;;;;;;;12970950;22;20362;-88
2022/10/06 00:32:10;;;;;;;20.60;16.33;;;;;;;;;;12971909;22;20441;-88
2022/10/06 00:37:12;;;;;;;19.25;16.15;;;;;;;;;;12971666;22;20369;-88
2022/10/06 00:42:22;;;;;;;18.33;15.47;;;;;;;;;;12968507;22;20420;-88
2022/10/06 00:47:29;;;;;;;21.00;16.02;;;;;;;;;;12969126;22;20393;-88
2022/10/06 00:52:31;;;;;;;20.95;16.10;;;;;;;;;;12973279;22;20789;-88
2022/10/06 00:57:35;;;;;;;21.17;16.30;;;;;;;;;;12975137;22;20849;-88
2022/10/06 01:02:42;;;;;;;20.58;15.88;;;;;;;;;;12975881;22;20406;-88
2022/10/06 01:07:44;;;;;;;22.57;15.93;;;;;;;;;;12975343;22;20362;-88
2022/10/06 01:12:46;;;;;;;19.90;16.10;;;;;;;;;;12975762;22;20487;-88
2022/10/06 01:17:54;;;;;;;23.53;16.47;;;;;;;;;;12975101;22;20369;-88
2022/10/06 01:23:01;;;;;;;21.38;15.57;;;;;;;;;;12974533;22;20374;-89
2022/10/06 01:28:05;;;;;;;20.65;15.63;;;;;;;;;;12972215;22;20378;-89
2022/10/06 01:33:07;;;;;;;20.15;16.30;;;;;;;;;;13013992;22;20392;-92
2022/10/06 01:38:11;;;;;;;19.87;16.10;;;;;;;;;;13040478;22;20368;-92
2022/10/06 01:43:12;;;;;;;19.58;15.80;;;;;;;;;;13041164;22;20438;-92
2022/10/06 01:48:14;;;;;;;19.33;15.55;;;;;;;;;;13040581;22;20438;-92
2022/10/06 01:53:18;;;;;;;18.10;15.07;;;;;;;;;;13041033;22;20430;-92
2022/10/06 01:58:20;;;;;;;20.17;15.30;;;;;;;;;;13041683;22;20360;-92
2022/10/06 02:03:22;;;;;;;20.33;14.90;;;;;;;;;;13040910;22;20709;-92
2022/10/06 02:08:25;;;;;;;16.90;13.40;;;;;;;;;;13041345;22;20675;-92
2022/10/06 02:13:28;;;;;;;18.13;13.30;;;;;;;;;;13040736;22;20364;-92
2022/10/06 02:18:30;;;;;;;19.00;12.90;;;;;;;;;;13040664;22;20764;-92
2022/10/06 02:23:34;;;;;;;18.10;13.23;;;;;;;;;;13041337;22;20395;-92
2022/10/06 02:28:36;;;;;;;14.40;12.20;;;;;;;;;;13040011;22;20500;-92
2022/10/06 02:33:39;;;;;;;15.77;12.50;;;;;;;;;;13039152;22;20369;-92
2022/10/06 02:38:43;;;;;;;14.73;12.40;;;;;;;;;;13040467;22;20384;-92
2022/10/06 02:43:46;;;;;;;15.63;11.77;;;;;;;;;;13039719;22;20450;-92
2022/10/06 02:48:48;;;;;;;14.93;11.57;;;;;;;;;;13027174;22;20359;-92
2022/10/06 02:53:52;;;;;;;16.65;11.68;;;;;;;;;;13040135;22;20786;-92
2022/10/06 02:58:55;;;;;;;13.35;11.40;;;;;;;;;;13039253;22;20423;-92
2022/10/06 03:03:56;;;;;;;14.70;11.05;;;;;;;;;;13039219;22;20380;-92
2022/10/06 03:09:03;;;;;;;13.50;10.50;;;;;;;;;;13039379;22;20365;-92
2022/10/06 03:14:06;;;;;;;14.73;11.43;;;;;;;;;;13038380;22;20667;-92
2022/10/06 03:19:09;;;;;;;13.80;11.67;;;;;;;;;;13039122;22;20361;-92
2022/10/06 03:24:12;;;;;;;13.68;11.07;;;;;;;;;;13039526;22;20388;-92
2022/10/06 03:29:14;;;;;;;15.10;12.20;;;;;;;;;;13038977;22;20375;-93
2022/10/06 03:34:16;;;;;;;14.82;12.05;;;;;;;;;;13038767;22;20755;-92
2022/10/06 03:39:20;;;;;;;16.98;12.40;;;;;;;;;;13038693;22;20426;-91
2022/10/06 03:44:22;;;;;;;14.68;12.30;;;;;;;;;;13038965;22;20674;-91
2022/10/06 03:49:24;;;;;;;16.58;13.27;;;;;;;;;;13039761;22;20430;-92
2022/10/06 03:54:27;;;;;;;17.97;12.83;;;;;;;;;;13038307;22;20871;-92
2022/10/06 03:59:32;;;;;;;15.48;13.20;;;;;;;;;;13038620;22;20451;-92
2022/10/06 04:04:34;;;;;;;16.00;13.05;;;;;;;;;;13038782;22;20383;-92
2022/10/06 04:09:38;;;;;;;16.75;13.02;;;;;;;;;;13039122;22;20430;-91
2022/10/06 04:14:39;;;;;;;16.00;13.67;;;;;;;;;;13038864;22;20360;-92
2022/10/06 04:19:41;;;;;;;18.73;13.85;;;;;;;;;;13038244;22;20365;-91
2022/10/06 04:24:45;;;;;;;18.40;13.80;;;;;;;;;;13037461;22;20385;-91
2022/10/06 04:29:46;;;;;;;20.97;14.10;;;;;;;;;;13038115;22;20361;-92
2022/10/06 04:34:48;;;;;;;18.47;14.83;;;;;;;;;;13037675;22;20426;-92
2022/10/06 04:39:52;;;;;;;21.30;15.57;;;;;;;;;;13038434;22;20872;-92
2022/10/06 04:44:54;;;;;;;19.00;14.27;;;;;;;;;;13037960;22;20431;-92
2022/10/06 04:49:56;;;;;;;18.75;14.50;;;;;;;;;;13038793;22;20427;-92
2022/10/06 04:54:59;;;;;;;20.10;14.40;;;;;;;;;;13038902;22;20689;-91
2022/10/06 05:05:21;;;;;;;20.48;15.75;;;;;;;;;;13038613;22;20372;-91
2022/10/06 05:10:26;;;;;;;20.50;15.20;;;;;;;;;;13037906;22;20364;-91
2022/10/06 05:15:28;;;;;;;19.10;14.70;;;;;;;;;;13038557;22;20376;-92
2022/10/06 05:20:30;;;;;;;21.50;15.10;;;;;;;;;;13039445;22;20375;-91
2022/10/06 05:25:33;;;;;;;23.45;16.40;;;;;;;;;;13038678;22;20434;-92
2022/10/06 05:30:35;;;;;;;22.33;15.73;;;;;;;;;;13037897;22;20372;-92
2022/10/06 05:35:37;;;;;;;23.98;16.30;;;;;;;;;;13037326;22;20400;-90
2022/10/06 05:40:41;;;;;;;22.73;17.10;;;;;;;;;;13038026;22;20479;-92
2022/10/06 05:45:53;;;;;;;25.13;18.02;;;;;;;;;;13038150;22;20381;-92
2022/10/06 05:50:59;;;;;;;24.33;17.53;;;;;;;;;;13039487;22;20397;-93
2022/10/06 05:56:08;;;;;;;26.48;17.92;;;;;;;;;;13039005;22;20455;-93
2022/10/06 06:01:11;;;;;;;25.70;19.05;;;;;;;;;;13043657;22;20401;-91
2022/10/06 06:06:18;;;;;;;26.07;18.53;;;;;;;;;;13042681;22;20378;-91
2022/10/06 06:11:25;;;;;;;30.17;18.92;;;;;;;;;;13038699;22;20418;-90
2022/10/06 06:16:29;;;;;;;26.42;18.20;;;;;;;;;;13044183;22;20364;-91
2022/10/06 06:21:32;;;;;;;27.30;18.27;;;;;;;;;;13043567;22;20942;-92
2022/10/06 06:26:36;;;;;;;25.83;17.53;;;;;;;;;;13044367;22;20380;-92
2022/10/06 06:31:42;;;;;;;25.67;16.80;;;;;;;;;;13043498;22;20399;-92
2022/10/06 06:36:50;;;;;;;24.83;17.00;;;;;;;;;;13043634;22;20368;-92
2022/10/06 06:41:54;;;;;;;23.85;17.25;;;;;;;;;;13043835;22;20372;-92
2022/10/06 06:46:56;;;;;;;22.75;15.90;;;;;;;;;;13043341;22;20380;-93
2022/10/06 06:51:58;;;;;;;25.95;16.58;;;;;;;;;;13043037;22;20403;-92
2022/10/06 06:57:01;;;;;;;25.55;18.10;;;;;;;;;;13042488;22;20369;-93
2022/10/06 07:02:03;;;;;;;27.98;18.40;;;;;;;;;;13042503;22;20368;-91
2022/10/06 07:07:05;;;;;;;25.98;18.80;;;;;;;;;;13042764;22;20442;-88
2022/10/06 07:12:10;;;;;;;25.20;17.87;;;;;;;;;;13043145;22;20380;-90
2022/10/06 07:27:52;;;;;;;27.60;19.05;;;;;;;;;;13042775;22;20408;-93
2022/10/06 07:32:55;;;;;;;35.15;19.88;;;;;;;;;;13042556;22;20435;-93
2022/10/06 07:38:04;;;;;;;31.20;19.83;;;;;;;;;;13043496;22;20372;-93
2022/10/06 07:43:08;;;;;;;31.13;20.10;;;;;;;;;;13041354;22;20460;-93
2022/10/06 07:48:13;;;;;;;35.73;20.23;;;;;;;;;;13043585;22;20377;-93
2022/10/06 07:53:16;;;;;;;30.42;20.30;;;;;;;;;;13043319;22;20694;-94
2022/10/06 07:58:22;;;;;;;31.17;19.83;;;;;;;;;;13042591;22;20368;-94
2022/10/06 08:03:24;;;;;;;31.63;20.25;;;;;;;;;;13043544;22;20376;-93
2022/10/06 08:08:26;;;;;;;30.90;20.40;;;;;;;;;;13042497;22;20376;-93
2022/10/06 08:13:31;;;;;;;31.03;19.40;;;;;;;;;;13042103;22;20371;-94
2022/10/06 08:18:33;;;;;;;30.48;19.70;;;;;;;;;;13042922;22;20452;-95
2022/10/06 08:23:38;;;;;;;28.05;19.77;;;;;;;;;;13043579;22;20923;-94
2022/10/06 08:28:45;;;;;;;29.63;19.70;;;;;;;;;;13043859;22;20369;-95
2022/10/06 08:33:54;;;;;;;32.42;20.70;;;;;;;;;;13042856;22;20456;-94
2022/10/06 08:38:56;;;;;;;29.60;19.63;;;;;;;;;;13043158;22;20364;-94
2022/10/06 08:44:06;;;;;;;28.25;19.73;;;;;;;;;;13042410;22;20758;-95
2022/10/06 08:49:20;;;;;;;27.17;18.85;;;;;;;;;;13041069;22;20459;-94
2022/10/06 08:54:34;;;;;;;30.33;18.33;;;;;;;;;;13039346;22;20361;-94
2022/10/06 08:59:40;;;;;;;26.95;17.40;;;;;;;;;;13041646;22;20683;-95
2022/10/06 09:04:47;;;;;;;28.30;18.83;;;;;;;;;;13041936;22;20430;-94
2022/10/06 09:10:05;;;;;;;26.50;18.03;;;;;;;;;;13042113;22;20376;-95
2022/10/06 09:15:28;;;;;;;25.55;16.13;;;;;;;;;;13046417;22;20373;-95
2022/10/06 09:20:35;;;;;;;23.95;16.75;;;;;;;;;;13046625;22;20418;-94
2022/10/06 09:25:38;;;;;;;25.05;16.83;;;;;;;;;;13047257;22;20376;-92
2022/10/06 09:30:43;;;;;;;24.47;15.63;;;;;;;;;;13045921;22;20372;-93
2022/10/06 09:36:05;;;;;;;24.92;16.55;;;;;;;;;;13044999;22;20883;-94
2022/10/06 09:41:07;;;;;;;23.33;15.03;;;;;;;;;;13044817;22;20832;-94
2022/10/06 09:46:28;;;;;;;23.67;16.10;;;;;;;;;;13044926;22;20407;-93
2022/10/06 09:51:36;;;;;;;18.05;12.85;;;;;;;;;;13043092;22;20422;-93
2022/10/06 09:56:46;;;;;;;20.35;14.73;;;;;;;;;;13045594;22;20387;-93
2022/10/06 10:01:56;;;;;;;17.40;12.98;;;;;;;;;;13045565;22;20371;-91
2022/10/06 10:07:23;;;;;;;21.33;14.60;;;;;;;;;;13044293;22;20384;-92
2022/10/06 10:12:29;;;;;;;19.90;13.87;;;;;;;;;;13046016;22;20373;-92
2022/10/06 10:17:43;;;;;;;21.10;14.30;;;;;;;;;;13043732;22;20424;-91
2022/10/06 10:22:47;;;;;;;20.55;13.52;;;;;;;;;;13044121;22;20418;-92
2022/10/06 10:27:58;;;;;;;20.10;13.10;;;;;;;;;;13044458;22;20377;-92
2022/10/06 10:33:08;;;;;;;17.40;12.25;;;;;;;;;;13045019;22;20383;-92
2022/10/06 10:38:18;;;;;;;15.70;12.47;;;;;;;;;;13045663;22;20372;-92
2022/10/06 10:43:30;;;;;;;18.08;13.25;;;;;;;;;;13045350;22;20375;-92
2022/10/06 10:48:42;;;;;;;16.30;11.75;;;;;;;;;;13046239;22;20419;-93
2022/10/06 10:53:48;;;;;;;18.58;12.57;;;;;;;;;;13042129;22;20369;-93
2022/10/06 10:58:56;;;;;;;16.45;12.88;;;;;;;;;;13038308;22;20361;-92
2022/10/06 11:04:01;;;;;;;18.90;13.27;;;;;;;;;;13044431;22;20387;-93
2022/10/06 11:09:11;;;;;;;16.42;10.98;;;;;;;;;;13041479;22;20877;-93
2022/10/06 11:14:34;;;;;;;17.10;12.18;;;;;;;;;;13043178;22;20836;-92
2022/10/06 11:19:51;;;;;;;16.58;12.35;;;;;;;;;;13043026;22;20426;-93
2022/10/06 11:25:01;;;;;;;18.45;13.70;;;;;;;;;;13041972;22;20926;-92
2022/10/06 11:30:17;;;;;;;16.63;12.07;;;;;;;;;;13043557;22;20372;-90
2022/10/06 11:35:22;;;;;;;15.82;12.45;;;;;;;;;;13039704;22;20380;-93
2022/10/06 11:40:51;;;;;;;14.38;10.88;;;;;;;;;;13043626;22;20376;-93
2022/10/06 11:46:00;;;;;;;17.13;13.07;;;;;;;;;;13038679;22;20438;-92
2022/10/06 11:51:31;;;;;;;15.35;12.57;;;;;;;;;;13041802;22;20383;-93
2022/10/06 11:56:44;;;;;;;15.82;12.20;;;;;;;;;;13021064;22;20406;-92
2022/10/06 12:02:05;;;;;;;16.45;12.48;;;;;;;;;;13042578;22;20373;-93
2022/10/06 12:07:11;;;;;;;17.97;14.00;;;;;;;;;;13041700;22;20736;-93
2022/10/06 12:12:52;;;;;;;15.50;12.17;;;;;;;;;;13041025;22;20438;-92
2022/10/06 12:24:02;;;;;;;14.65;11.30;;;;;;;;;;13040653;22;20361;-92
2022/10/06 12:29:33;;;;;;;17.47;13.23;;;;;;;;;;13042530;22;20381;-93
2022/10/06 12:41:07;;;;;;;;;;;;;;;;;;;;;
2022/10/06 12:46:50;;;;;;;14.80;11.52;;;;;;;;;;13041658;22;20860;-94
2022/10/06 12:52:08;;;;;;;15.95;11.40;;;;;;;;;;13033526;22;20365;-93
2022/10/06 12:57:27;;;;;;;14.35;11.32;;;;;;;;;;13047393;22;21024;-94
2022/10/06 13:02:34;;;;;;;13.70;10.77;;;;;;;;;;13044293;22;20407;-93
2022/10/06 13:08:12;;;;;;;13.98;11.32;;;;;;;;;;13045377;22;20534;-93
2022/10/06 13:13:29;;;;;;;16.88;12.43;;;;;;;;;;13046356;22;20431;-94
2022/10/06 13:18:33;;;;;;;13.47;10.97;;;;;;;;;;13045713;22;20440;-94
2022/10/06 13:35:27;;;;;;;13.73;10.90;;;;;;;;;;12868072;22;20387;-91
2022/10/06 13:40:32;;;;;;;13.93;10.80;;;;;;;;;;12911865;23;20372;-91
2022/10/06 13:45:34;;;;;;;14.60;10.70;;;;;;;;;;12911726;23;20392;-91
2022/10/06 13:50:40;;;;;;;13.87;10.73;;;;;;;;;;12911356;23;20368;-92
2022/10/06 13:55:49;;;;;;;13.85;10.32;;;;;;;;;;12908075;23;20812;-89
2022/10/06 14:00:54;;;;;;;13.13;10.60;;;;;;;;;;12909937;23;20372;-91
2022/10/06 14:06:20;;;;;;;14.02;11.10;;;;;;;;;;12907668;23;20468;-90
2022/10/06 14:11:24;;;;;;;15.00;11.63;;;;;;;;;;12911818;23;20372;-91
2022/10/06 14:16:27;;;;;;;12.87;10.47;;;;;;;;;;12911934;23;20356;-89
2022/10/06 14:21:38;;;;;;;12.07;10.43;;;;;;;;;;12909957;23;20556;-90
2022/10/06 14:26:40;;;;;;;12.43;10.10;;;;;;;;;;12909295;23;20384;-90
2022/10/06 14:31:43;;;;;;;11.35;8.80;;;;;;;;;;12907424;23;20476;-90
2022/10/06 14:36:50;;;;;;;13.05;9.43;;;;;;;;;;12985164;22;20361;-90
2022/10/06 14:41:52;;;;;;;10.73;9.25;;;;;;;;;;13037100;22;20365;-92
2022/10/06 14:46:54;;;;;;;11.15;8.88;;;;;;;;;;13043414;22;20391;-92
2022/10/06 14:51:57;;;;;;;10.50;9.27;;;;;;;;;;13031872;22;21195;-91
2022/10/06 14:56:59;;;;;;;12.35;9.57;;;;;;;;;;13034684;22;20487;-90
2022/10/06 15:02:01;;;;;;;11.73;9.25;;;;;;;;;;13035003;22;20369;-91
2022/10/06 15:12:24;;;;;;;10.90;8.15;;;;;;;;;;13034395;22;20392;-91
2022/10/06 15:17:27;;;;;;;12.55;8.60;;;;;;;;;;13034882;22;20365;-92
2022/10/06 15:22:30;;;;;;;11.73;8.20;;;;;;;;;;13037065;22;20395;-93
2022/10/06 15:32:51;;;;;;;8.60;7.70;;;;;;;;;;13031803;22;20353;-83
2022/10/06 15:37:55;;;;;;;10.68;9.02;;;;;;;;;;13024028;22;21142;-89
2022/10/06 15:42:57;;;;;;;11.32;9.10;;;;;;;;;;13024784;22;20369;-89
2022/10/06 15:47:59;;;;;;;12.38;8.95;;;;;;;;;;13025614;22;20419;-89
2022/10/06 15:53:02;;;;;;;12.20;8.30;;;;;;;;;;13024265;22;21194;-89
2022/10/06 15:58:04;;;;;;;14.23;8.75;;;;;;;;;;13021225;22;20393;-91
2022/10/06 16:03:22;;;;;;;10.87;9.10;;;;;;;;;;13024835;22;20818;-88
2022/10/06 16:08:25;;;;;;;10.13;8.43;;;;;;;;;;13025683;22;20411;-90
2022/10/06 16:13:27;;;;;;;13.57;8.88;;;;;;;;;;13027204;22;20392;-89
2022/10/06 16:18:31;;;;;;;12.77;8.75;;;;;;;;;;13030615;22;20365;-90
2022/10/06 16:23:34;;;;;;;10.43;8.87;;;;;;;;;;13029938;22;20423;-90
2022/10/06 16:28:36;;;;;;;13.13;8.50;;;;;;;;;;13028675;22;20490;-89
2022/10/06 16:33:38;;;;;;;15.60;8.53;;;;;;;;;;13029176;22;20645;-88
2022/10/06 16:38:42;;;;;;;12.77;7.95;;;;;;;;;;13032808;22;20400;-89
2022/10/06 16:43:45;;;;;;;11.03;7.53;;;;;;;;;;13032891;22;20411;-89
2022/10/06 16:48:49;;;;;;;8.50;7.57;;;;;;;;;;13033593;22;20415;-89
2022/10/06 16:53:54;;;;;;;10.87;7.27;;;;;;;;;;13032428;22;20697;-89
2022/10/06 16:58:58;;;;;;;10.70;7.93;;;;;;;;;;13033081;22;20427;-89
2022/10/06 17:04:01;;;;;;;10.90;8.10;;;;;;;;;;13030884;22;20399;-90
2022/10/06 17:09:19;;;;;;;12.90;8.15;;;;;;;;;;13031947;22;20385;-94
2022/10/06 17:14:21;;;;;;;13.30;8.73;;;;;;;;;;13033865;22;20732;-87
2022/10/06 17:19:25;;;;;;;12.33;8.97;;;;;;;;;;13032225;22;21018;-90
2022/10/06 17:24:30;;;;;;;11.57;8.40;;;;;;;;;;13034499;22;20456;-90
2022/10/06 17:29:31;;;;;;;20.75;8.55;;;;;;;;;;13035991;22;21137;-88
2022/10/06 17:34:33;;;;;;;12.13;8.38;;;;;;;;;;13028372;22;20369;-88
2022/10/06 17:39:37;;;;;;;11.55;9.00;;;;;;;;;;13034033;22;20432;-89
2022/10/06 17:44:38;;;;;;;14.95;9.05;;;;;;;;;;13035135;22;21010;-89
2022/10/06 17:49:40;;;;;;;12.43;8.93;;;;;;;;;;13032498;22;20380;-88
2022/10/06 17:54:44;;;;;;;14.05;9.45;;;;;;;;;;13031863;22;20365;-88
2022/10/06 17:59:46;;;;;;;15.05;9.70;;;;;;;;;;13030670;22;20364;-89
2022/10/06 18:04:49;;;;;;;14.52;10.75;;;;;;;;;;13028362;22;20412;-88
2022/10/06 18:15:09;;;;;;;18.65;14.23;;;;;;;;;;13006075;22;20459;-90
2022/10/06 18:20:12;;;;;;;16.80;13.40;;;;;;;;;;13030711;22;20486;-88
2022/10/06 18:25:15;;;;;;;20.48;15.32;;;;;;;;;;13026433;22;20438;-89
2022/10/06 18:30:18;;;;;;;19.58;15.32;;;;;;;;;;13028307;22;20380;-86
2022/10/06 18:35:20;;;;;;;19.40;15.30;;;;;;;;;;13033207;22;20369;-89
2022/10/06 18:40:23;;;;;;;21.10;16.57;;;;;;;;;;13025198;22;20372;-88
2022/10/06 18:50:45;;;;;;;24.17;16.60;;;;;;;;;;13033103;22;20728;-89
2022/10/06 18:55:51;;;;;;;24.00;17.90;;;;;;;;;;13030674;22;20468;-89
2022/10/06 19:00:54;;;;;;;25.00;19.45;;;;;;;;;;13022619;22;20365;-89
2022/10/06 19:05:57;;;;;;;26.00;20.15;;;;;;;;;;13025504;22;20377;-86
2022/10/06 19:16:23;;;;;;;31.20;22.05;;;;;;;;;;13023845;22;20868;-87
2022/10/06 19:21:25;;;;;;;29.58;22.35;;;;;;;;;;13023625;22;21472;-89
2022/10/06 19:26:28;;;;;;;34.70;24.33;;;;;;;;;;13025008;22;20446;-88
2022/10/06 19:31:31;;;;;;;36.72;24.77;;;;;;;;;;13023303;22;20356;-90
2022/10/06 19:36:33;;;;;;;36.25;25.92;;;;;;;;;;13022218;22;20856;-90
2022/10/06 19:46:55;;;;;;;35.75;25.10;;;;;;;;;;13023842;22;20467;-89
2022/10/06 19:51:57;;;;;;;34.13;24.63;;;;;;;;;;13021960;22;20467;-89
2022/10/06 19:57:01;;;;;;;34.05;24.15;;;;;;;;;;13021078;22;20377;-88
2022/10/06 20:02:07;;;;;;;33.65;23.95;;;;;;;;;;13023733;22;20843;-89
2022/10/06 20:07:10;;;;;;;34.40;24.17;;;;;;;;;;13025512;22;20474;-88
2022/10/06 20:12:15;;;;;;;30.17;22.87;;;;;;;;;;13026277;22;20880;-88
2022/10/06 20:17:19;;;;;;;28.83;23.00;;;;;;;;;;13024177;22;20380;-88
2022/10/06 20:22:21;;;;;;;34.10;22.90;;;;;;;;;;13026330;22;20434;-88
2022/10/06 20:27:24;;;;;;;33.53;22.25;;;;;;;;;;13029958;22;20385;-89
2022/10/06 20:32:26;;;;;;;34.05;22.88;;;;;;;;;;13023465;22;20432;-89
2022/10/06 20:37:28;;;;;;;28.50;21.15;;;;;;;;;;13023489;22;20887;-89
2022/10/06 20:42:32;;;;;;;26.90;20.25;;;;;;;;;;13024436;22;20644;-88
2022/10/06 20:47:34;;;;;;;27.27;20.20;;;;;;;;;;13024823;22;20403;-91
2022/10/06 20:52:38;;;;;;;27.65;19.85;;;;;;;;;;13024040;22;20422;-91
2022/10/06 20:57:41;;;;;;;26.55;19.98;;;;;;;;;;13030569;22;20349;-89
2022/10/06 21:02:44;;;;;;;32.70;21.00;;;;;;;;;;13029601;22;20361;-91
2022/10/06 21:07:46;;;;;;;27.08;19.55;;;;;;;;;;13029448;22;20408;-91
2022/10/06 21:12:49;;;;;;;26.85;19.63;;;;;;;;;;13033902;22;20400;-90
2022/10/06 21:17:51;;;;;;;24.47;18.47;;;;;;;;;;13032265;22;20844;-90
2022/10/06 21:22:53;;;;;;;19.77;15.23;;;;;;;;;;13032035;22;20373;-92
2022/10/06 21:27:56;;;;;;;19.63;14.02;;;;;;;;;;13036103;22;20381;-90
2022/10/06 21:32:58;;;;;;;15.83;13.23;;;;;;;;;;13040750;22;20365;-90
2022/10/06 21:38:00;;;;;;;17.38;12.13;;;;;;;;;;13033824;22;20365;-91
2022/10/06 21:43:04;;;;;;;14.13;10.75;;;;;;;;;;13033682;22;20888;-91
2022/10/06 21:48:05;;;;;;;12.57;9.30;;;;;;;;;;13036677;22;20860;-90
2022/10/06 21:53:07;;;;;;;10.27;8.82;;;;;;;;;;13036257;22;20373;-91
2022/10/06 21:58:11;;;;;;;13.13;9.30;;;;;;;;;;13037702;22;20368;-90
2022/10/06 22:03:13;;;;;;;11.77;9.25;;;;;;;;;;13038010;22;20357;-89
2022/10/06 22:08:14;;;;;;;11.73;8.70;;;;;;;;;;13036988;22;20415;-91
2022/10/06 22:13:18;;;;;;;10.43;8.57;;;;;;;;;;13037734;22;20387;-89
2022/10/06 22:18:19;;;;;;;10.93;8.07;;;;;;;;;;13032314;22;20385;-89
2022/10/06 22:23:21;;;;;;;13.13;7.30;;;;;;;;;;13035669;22;20403;-90
2022/10/06 22:28:25;;;;;;;8.75;7.57;;;;;;;;;;13034650;22;20404;-91
2022/10/06 22:33:27;;;;;;;7.93;6.82;;;;;;;;;;13034790;22;20372;-91
2022/10/06 22:38:29;;;;;;;8.75;7.20;;;;;;;;;;13033900;22;20388;-89
2022/10/06 22:43:33;;;;;;;8.93;6.75;;;;;;;;;;13033844;22;20365;-91
2022/10/06 22:48:35;;;;;;;8.75;6.60;;;;;;;;;;13031434;22;20452;-89
2022/10/06 22:53:37;;;;;;;7.90;6.00;;;;;;;;;;13031541;22;20360;-90
2022/10/06 22:58:42;;;;;;;6.03;5.43;;;;;;;;;;13004228;22;20388;-90
2022/10/06 23:03:44;;;;;;;7.15;5.50;;;;;;;;;;13033514;22;20361;-91
2022/10/06 23:08:46;;;;;;;7.00;5.72;;;;;;;;;;13033069;22;20377;-90
2022/10/06 23:13:51;;;;;;;7.90;5.93;;;;;;;;;;13035788;22;20360;-91
2022/10/06 23:18:53;;;;;;;6.35;5.43;;;;;;;;;;13036276;22;20364;-89
2022/10/06 23:23:59;;;;;;;6.10;5.50;;;;;;;;;;13032788;22;20365;-90
2022/10/06 23:29:03;;;;;;;6.37;5.60;;;;;;;;;;13028577;22;20548;-91
2022/10/06 23:34:05;;;;;;;7.53;5.70;;;;;;;;;;13029908;22;20400;-90
2022/10/06 23:39:07;;;;;;;6.15;5.55;;;;;;;;;;13033381;22;20661;-89
2022/10/06 23:44:10;;;;;;;6.70;5.38;;;;;;;;;;13005939;22;20367;-90
2022/10/06 23:49:12;;;;;;;6.60;5.80;;;;;;;;;;13006025;22;20384;-90
2022/10/06 23:54:14;;;;;;;7.35;6.10;;;;;;;;;;13035251;22;20368;-89
2022/10/06 23:59:17;;;;;;;6.90;6.13;;;;;;;;;;13036640;22;20360;-89
